Terminal Aerodrome Forecast
Issued by NWS

Home | Current Version | Previous Version | Text Only | Print | Product List | Glossary Off
Versions: 1 2 3 4 5 6 7 8 9 10 11 12 13 14 15 16 17 18 19 20 21 22 23 24 25 26

000
FTUS43 KTOP 170800 AAB
TAFMHK
TAF AMD
KMHK 170811Z 1708/1806 18004KT P6SM VCTS BKN070CB
     FM170900 18004KT 6SM BR BKN015
     FM171200 15004KT 3SM BR BKN008
     FM171500 16005KT 6SM BR BKN012
     FM171700 19005KT P6SM SCT015 BKN250=

USA.gov is the U.S. government's official web portal to all federal, state and local government web resources and services.